createdAt,value
2023-10-17T00:00:40.520Z,4.73
2023-10-17T00:03:07.806Z,4.57
2023-10-17T00:05:34.992Z,5.40
2023-10-17T00:08:01.736Z,7.10
2023-10-17T00:10:32.421Z,7.80
2023-10-17T00:13:17.817Z,7.33
2023-10-17T00:15:45.929Z,7.40
2023-10-17T00:18:17.356Z,9.27
2023-10-17T00:20:45.039Z,9.07
2023-10-17T00:23:21.656Z,8.47
2023-10-17T00:25:50.550Z,8.90
2023-10-17T00:28:21.628Z,8.50
2023-10-17T00:30:53.269Z,7.50
2023-10-17T00:33:21.902Z,7.03
2023-10-17T00:35:49.250Z,7.63
2023-10-17T00:38:17.280Z,8.60
2023-10-17T00:40:52.520Z,7.60
2023-10-17T00:43:20.871Z,7.93
2023-10-17T00:45:47.618Z,7.23
2023-10-17T00:48:19.301Z,6.53
2023-10-17T00:50:46.927Z,6.60
2023-10-17T00:53:14.867Z,6.80
2023-10-17T00:55:50.758Z,8.40
2023-10-17T00:58:19.764Z,7.30
2023-10-17T01:00:50.953Z,8.53
2023-10-17T01:03:18.180Z,10.67
2023-10-17T01:05:58.572Z,10.30
2023-10-17T01:08:41.075Z,8.93
2023-10-17T01:11:12.540Z,7.93
2023-10-17T01:13:39.304Z,8.00
2023-10-17T01:16:09.128Z,6.70
2023-10-17T01:18:35.971Z,8.17
2023-10-17T01:21:02.217Z,7.00
2023-10-17T01:23:31.372Z,7.63
2023-10-17T01:25:58.050Z,7.60
2023-10-17T01:28:24.536Z,7.07
2023-10-17T01:30:57.215Z,7.70
2023-10-17T01:33:26.555Z,7.10
2023-10-17T01:35:54.282Z,6.93
2023-10-17T01:38:21.885Z,6.80
2023-10-17T01:40:48.561Z,6.70
2023-10-17T01:43:15.272Z,7.03
2023-10-17T01:45:43.729Z,6.70
2023-10-17T01:48:12.705Z,6.00
2023-10-17T01:50:40.934Z,5.90
2023-10-17T01:53:13.810Z,7.27
2023-10-17T01:55:41.046Z,5.53
2023-10-17T01:58:16.643Z,5.37
2023-10-17T02:00:44.023Z,5.70
2023-10-17T02:03:14.401Z,5.50
2023-10-17T02:05:41.465Z,4.80
2023-10-17T02:08:08.042Z,6.43
2023-10-17T02:10:35.110Z,6.17
2023-10-17T02:13:01.656Z,6.07
2023-10-17T02:15:28.686Z,5.07
2023-10-17T02:17:55.394Z,5.80
2023-10-17T02:20:31.660Z,5.10
2023-10-17T02:23:00.689Z,5.23
2023-10-17T02:25:36.668Z,5.40
2023-10-17T02:28:03.680Z,5.70
2023-10-17T02:30:32.171Z,4.83
2023-10-17T02:32:58.782Z,5.33
2023-10-17T02:35:57.523Z,5.43
2023-10-17T02:38:23.951Z,5.00
2023-10-17T02:40:52.508Z,5.60
2023-10-17T02:43:18.828Z,5.03
2023-10-17T02:45:45.128Z,4.93
2023-10-17T02:48:27.423Z,5.10
2023-10-17T02:51:00.413Z,5.40
2023-10-17T02:53:31.344Z,5.40
2023-10-17T02:55:59.105Z,5.63
2023-10-17T02:58:25.472Z,4.80
2023-10-17T03:00:51.805Z,4.63
2023-10-17T03:03:21.059Z,5.47
2023-10-17T03:05:52.150Z,5.37
2023-10-17T03:08:19.111Z,4.80
2023-10-17T03:10:46.964Z,4.77
2023-10-17T03:13:23.775Z,5.60
2023-10-17T03:15:55.043Z,4.63
2023-10-17T03:18:22.669Z,5.07
2023-10-17T03:20:55.183Z,5.33
2023-10-17T03:23:29.431Z,4.83
2023-10-17T03:26:02.357Z,5.50
2023-10-17T03:28:30.970Z,5.53
2023-10-17T03:30:57.390Z,5.03
2023-10-17T03:33:34.294Z,4.80
2023-10-17T03:36:04.248Z,5.33
2023-10-17T03:38:34.971Z,5.30
2023-10-17T03:41:16.836Z,4.93
2023-10-17T03:43:53.110Z,5.23
2023-10-17T03:46:20.203Z,5.10
2023-10-17T03:48:58.357Z,5.37
2023-10-17T03:51:28.622Z,5.73
2023-10-17T03:53:55.665Z,5.70
2023-10-17T03:56:25.172Z,6.03
2023-10-17T03:58:58.908Z,6.10
2023-10-17T04:01:25.762Z,5.87
2023-10-17T04:03:55.493Z,5.97
2023-10-17T04:06:36.013Z,6.03
2023-10-17T04:09:21.879Z,5.93
2023-10-17T04:11:54.490Z,5.70
2023-10-17T04:14:22.670Z,6.27
2023-10-17T04:16:50.126Z,5.00
2023-10-17T04:19:19.786Z,5.40
2023-10-17T04:21:50.475Z,5.23
2023-10-17T04:24:27.810Z,5.57
2023-10-17T04:27:07.812Z,5.70
2023-10-17T04:29:35.252Z,5.40
2023-10-17T04:32:06.280Z,5.27
2023-10-17T04:34:35.612Z,5.53
2023-10-17T04:37:05.359Z,5.70
2023-10-17T04:39:34.575Z,5.80
2023-10-17T04:42:01.216Z,5.67
2023-10-17T04:44:33.363Z,6.50
2023-10-17T04:47:02.493Z,4.90
2023-10-17T04:49:31.991Z,5.10
2023-10-17T04:52:08.222Z,6.17
2023-10-17T04:54:38.457Z,5.97
2023-10-17T04:57:08.510Z,5.97
2023-10-17T04:59:50.757Z,5.80
2023-10-17T05:02:18.080Z,5.50
2023-10-17T05:04:57.407Z,5.80
2023-10-17T05:07:44.801Z,5.90
2023-10-17T05:10:17.268Z,5.27
2023-10-17T05:13:02.561Z,5.17
2023-10-17T05:15:47.886Z,5.60
2023-10-17T05:18:32.923Z,5.23
2023-10-17T05:21:22.751Z,6.27
2023-10-17T05:24:08.321Z,6.93
2023-10-17T05:26:53.475Z,6.53
2023-10-17T05:29:38.084Z,5.77
2023-10-17T05:32:23.525Z,6.07
2023-10-17T05:35:08.680Z,6.90
2023-10-17T05:37:53.512Z,6.50
2023-10-17T05:40:38.668Z,6.20
2023-10-17T05:43:23.865Z,6.30
2023-10-17T05:46:25.909Z,6.00
2023-10-17T05:49:10.666Z,6.50
2023-10-17T05:51:55.770Z,7.20
2023-10-17T05:55:07.467Z,6.23
2023-10-17T05:57:45.523Z,6.83
2023-10-17T06:00:30.689Z,6.67
2023-10-17T06:03:15.810Z,7.47
2023-10-17T06:06:04.783Z,7.10
2023-10-17T06:09:03.525Z,7.13
2023-10-17T06:11:48.238Z,7.20
2023-10-17T06:14:33.513Z,6.60
2023-10-17T06:17:00.052Z,6.70
2023-10-17T06:19:26.704Z,6.23
2023-10-17T06:22:02.979Z,6.70
2023-10-17T06:24:45.670Z,6.80
2023-10-17T06:27:13.835Z,6.00
2023-10-17T06:29:40.194Z,6.00
2023-10-17T06:32:38.549Z,6.20
2023-10-17T06:35:14.872Z,7.20
2023-10-17T06:37:44.052Z,9.43
2023-10-17T06:40:16.868Z,8.80
2023-10-17T06:42:59.402Z,8.13
2023-10-17T06:45:25.489Z,6.90
2023-10-17T06:47:57.856Z,8.60
2023-10-17T06:50:43.149Z,7.30
2023-10-17T06:53:12.648Z,7.10
2023-10-17T06:55:45.847Z,7.50
2023-10-17T06:58:12.119Z,6.30
2023-10-17T07:00:54.077Z,6.90
2023-10-17T07:03:27.884Z,5.90
2023-10-17T07:05:56.554Z,5.93
2023-10-17T07:08:23.115Z,5.73
2023-10-17T07:11:07.093Z,6.20
2023-10-17T07:13:52.769Z,6.50
2023-10-17T07:16:26.494Z,5.77
2023-10-17T07:18:53.192Z,5.17
2023-10-17T07:21:25.665Z,6.23
2023-10-17T07:23:55.647Z,6.67
2023-10-17T07:26:39.303Z,6.00
2023-10-17T07:29:06.750Z,6.30
2023-10-17T07:31:34.128Z,6.40
2023-10-17T07:34:12.208Z,5.83
2023-10-17T07:36:38.414Z,5.57
2023-10-17T07:39:16.810Z,5.77
2023-10-17T07:41:54.111Z,6.60
2023-10-17T07:44:21.243Z,5.23
2023-10-17T07:46:51.844Z,5.70
2023-10-17T07:49:28.286Z,5.10
2023-10-17T07:51:55.299Z,5.30
2023-10-17T07:54:29.752Z,4.83
2023-10-17T07:56:56.464Z,6.00
2023-10-17T07:59:32.132Z,5.53
2023-10-17T08:02:24.743Z,13.70
2023-10-17T08:04:52.149Z,11.90
2023-10-17T08:07:21.984Z,7.53
2023-10-17T08:09:52.216Z,5.97
2023-10-17T08:12:23.142Z,6.40
2023-10-17T08:14:59.132Z,7.33
2023-10-17T08:17:28.313Z,7.23
2023-10-17T08:20:23.772Z,7.27
2023-10-17T08:22:56.506Z,7.80
2023-10-17T08:25:33.492Z,6.73
2023-10-17T08:27:59.751Z,5.13
2023-10-17T08:30:45.144Z,5.70
2023-10-17T08:33:13.096Z,6.27
2023-10-17T08:35:40.309Z,4.80
2023-10-17T08:38:07.636Z,3.13
2023-10-17T08:40:37.328Z,3.43
2023-10-17T08:43:08.063Z,3.27
2023-10-17T08:45:37.545Z,3.43
2023-10-17T08:48:07.358Z,3.67
2023-10-17T08:50:39.666Z,3.30
2023-10-17T08:53:10.731Z,4.57
2023-10-17T08:55:41.202Z,3.10
2023-10-17T08:58:09.445Z,2.70
2023-10-17T09:00:48.278Z,2.70
2023-10-17T09:03:22.207Z,2.50
2023-10-17T09:05:59.638Z,2.50
2023-10-17T09:08:44.333Z,3.07
2023-10-17T09:11:15.284Z,3.23
2023-10-17T09:13:50.759Z,2.80
2023-10-17T09:16:17.132Z,3.00
2023-10-17T09:18:49.064Z,3.20
2023-10-17T09:21:16.041Z,2.87
2023-10-17T09:23:45.371Z,2.57
2023-10-17T09:26:11.496Z,2.90
2023-10-17T09:28:37.921Z,2.70
2023-10-17T09:31:08.100Z,2.53
2023-10-17T09:33:35.379Z,2.67
2023-10-17T09:36:05.843Z,2.07
2023-10-17T09:38:35.490Z,1.90
2023-10-17T09:41:15.962Z,1.67
2023-10-17T09:43:44.792Z,2.40
2023-10-17T09:46:11.870Z,2.57
2023-10-17T09:48:42.431Z,2.13
2023-10-17T09:51:12.169Z,2.20
2023-10-17T09:53:40.156Z,2.27
2023-10-17T09:56:10.536Z,1.70
2023-10-17T09:58:39.778Z,1.60
2023-10-17T10:01:11.654Z,1.90
2023-10-17T10:03:38.531Z,1.70
2023-10-17T10:06:23.613Z,1.60
2023-10-17T10:08:55.507Z,1.87
2023-10-17T10:11:21.726Z,1.87
2023-10-17T10:14:01.786Z,1.80
2023-10-17T10:16:48.666Z,1.63
2023-10-17T10:19:15.414Z,2.00
2023-10-17T10:21:54.104Z,2.20
2023-10-17T10:24:22.754Z,1.83
2023-10-17T10:26:49.074Z,2.20
2023-10-17T10:29:24.558Z,1.90
2023-10-17T10:31:50.616Z,1.87
2023-10-17T10:34:16.729Z,1.80
2023-10-17T10:36:43.516Z,4.00
2023-10-17T10:39:14.611Z,1.37
2023-10-17T10:41:57.063Z,1.70
2023-10-17T10:44:23.170Z,1.83
2023-10-17T10:46:49.398Z,1.90
2023-10-17T10:49:16.776Z,1.67
2023-10-17T10:51:48.961Z,1.80
2023-10-17T10:54:15.174Z,1.60
2023-10-17T10:56:50.422Z,2.00
2023-10-17T10:59:20.849Z,1.53
2023-10-17T11:01:48.932Z,1.67
2023-10-17T11:04:15.489Z,1.90
2023-10-17T11:06:42.458Z,1.77
2023-10-17T11:09:18.273Z,1.47
2023-10-17T11:11:46.221Z,1.57
2023-10-17T11:14:19.689Z,1.27
2023-10-17T11:16:47.469Z,1.23
2023-10-17T11:19:20.808Z,1.13
2023-10-17T11:21:54.013Z,1.27
2023-10-17T11:24:21.899Z,1.43
2023-10-17T11:26:52.236Z,1.20
2023-10-17T11:29:19.158Z,1.73
2023-10-17T11:31:45.593Z,1.67
2023-10-17T11:34:14.973Z,1.67
2023-10-17T11:36:48.155Z,1.73
2023-10-17T11:39:20.022Z,1.10
2023-10-17T11:41:47.974Z,1.10
2023-10-17T11:44:17.518Z,1.70
2023-10-17T11:46:56.980Z,1.00
2023-10-17T11:49:32.835Z,1.60
2023-10-17T11:52:11.806Z,1.20
2023-10-17T11:55:02.239Z,1.20
2023-10-17T11:57:29.643Z,1.13
2023-10-17T11:59:56.454Z,1.10
2023-10-17T12:02:22.636Z,1.30
2023-10-17T12:04:48.744Z,1.10
2023-10-17T12:07:14.896Z,1.00
2023-10-17T12:09:41.212Z,1.60
2023-10-17T12:12:07.904Z,0.90
2023-10-17T12:14:36.373Z,1.03
2023-10-17T12:17:02.470Z,1.17
2023-10-17T12:19:29.101Z,1.17
2023-10-17T12:21:56.004Z,1.23
2023-10-17T12:24:25.720Z,1.13
2023-10-17T12:26:52.097Z,1.20
2023-10-17T12:29:18.546Z,1.13
2023-10-17T12:31:46.998Z,1.10
2023-10-17T12:34:16.567Z,1.43
2023-10-17T12:36:43.097Z,1.00
2023-10-17T12:39:09.963Z,1.00
2023-10-17T12:41:37.379Z,1.00
2023-10-17T12:44:04.778Z,1.07
2023-10-17T12:46:32.045Z,0.97
2023-10-17T12:48:58.537Z,1.10
2023-10-17T12:51:24.838Z,1.00
2023-10-17T12:53:51.114Z,1.10
2023-10-17T12:56:19.153Z,1.13
2023-10-17T12:58:45.636Z,1.20
2023-10-17T13:01:14.879Z,1.07
2023-10-17T13:03:44.266Z,0.90
2023-10-17T13:06:10.536Z,1.20
2023-10-17T13:08:36.981Z,1.20
2023-10-17T13:11:08.043Z,1.00
2023-10-17T13:13:34.232Z,1.20
2023-10-17T13:16:00.737Z,0.93
2023-10-17T13:18:29.706Z,0.93
2023-10-17T13:21:11.010Z,1.00
2023-10-17T13:23:38.582Z,0.93
2023-10-17T13:26:08.950Z,1.30
2023-10-17T13:28:35.396Z,1.03
2023-10-17T13:31:08.828Z,1.10
2023-10-17T13:33:35.166Z,2.03
2023-10-17T13:36:01.464Z,1.00
2023-10-17T13:38:27.553Z,1.03
2023-10-17T13:41:02.261Z,1.20
2023-10-17T13:43:28.592Z,0.90
2023-10-17T13:45:54.750Z,0.87
2023-10-17T13:48:21.900Z,1.40
2023-10-17T13:50:47.967Z,1.10
2023-10-17T13:53:18.990Z,1.00
2023-10-17T13:55:46.512Z,1.10
2023-10-17T13:58:13.013Z,1.13
2023-10-17T14:00:44.288Z,1.23
2023-10-17T14:03:13.774Z,1.40
2023-10-17T14:05:45.422Z,1.50
2023-10-17T14:08:14.442Z,1.03
2023-10-17T14:10:44.429Z,1.00
2023-10-17T14:13:12.620Z,1.10
2023-10-17T14:15:42.633Z,1.00
2023-10-17T14:18:14.478Z,1.40
2023-10-17T14:20:41.584Z,1.10
2023-10-17T14:23:13.073Z,0.80
2023-10-17T14:25:58.630Z,1.00
2023-10-17T14:28:24.826Z,1.20
2023-10-17T14:30:51.147Z,1.40
2023-10-17T14:33:17.365Z,0.90
2023-10-17T14:35:44.808Z,1.10
2023-10-17T14:38:11.541Z,0.93
2023-10-17T14:40:37.437Z,1.40
2023-10-17T14:43:03.916Z,0.90
2023-10-17T14:45:30.151Z,1.10
2023-10-17T14:47:56.517Z,1.13
2023-10-17T14:50:22.656Z,1.80
2023-10-17T14:52:48.855Z,1.60
2023-10-17T14:55:24.956Z,1.33
2023-10-17T14:57:52.170Z,1.40
2023-10-17T15:00:18.535Z,1.30
2023-10-17T15:02:45.513Z,1.70
2023-10-17T15:05:14.963Z,1.47
2023-10-17T15:07:42.287Z,1.40
2023-10-17T15:10:13.055Z,1.40
2023-10-17T15:12:43.174Z,1.40
2023-10-17T15:15:15.036Z,1.53
2023-10-17T15:17:44.572Z,1.70
2023-10-17T15:20:12.437Z,1.50
2023-10-17T15:22:39.750Z,1.70
2023-10-17T15:25:06.300Z,1.63
2023-10-17T15:27:32.419Z,2.00
2023-10-17T15:29:58.554Z,1.63
2023-10-17T15:32:25.127Z,2.57
2023-10-17T15:34:51.201Z,1.90
2023-10-17T15:37:18.585Z,2.03
2023-10-17T15:39:45.383Z,2.17
2023-10-17T15:42:11.682Z,1.57
2023-10-17T15:44:37.880Z,1.63
2023-10-17T15:47:03.982Z,1.83
2023-10-17T15:49:31.385Z,2.23
2023-10-17T15:51:58.302Z,1.80
2023-10-17T15:54:24.343Z,2.37
2023-10-17T15:56:50.421Z,2.07
2023-10-17T15:59:16.602Z,2.00
2023-10-17T16:01:43.203Z,2.00
2023-10-17T16:04:09.422Z,2.03
2023-10-17T16:06:35.605Z,1.97
2023-10-17T16:09:01.715Z,2.50
2023-10-17T16:11:28.467Z,2.37
2023-10-17T16:13:55.422Z,2.63
2023-10-17T16:16:21.701Z,2.80
2023-10-17T16:18:47.977Z,2.17
2023-10-17T16:21:14.143Z,2.33
2023-10-17T16:23:40.303Z,3.50
2023-10-17T16:26:06.447Z,3.30
2023-10-17T16:28:34.229Z,3.27
2023-10-17T16:31:00.943Z,3.10
2023-10-17T16:33:28.156Z,2.70
2023-10-17T16:36:01.399Z,2.50
2023-10-17T16:38:28.599Z,2.83
2023-10-17T16:40:55.376Z,2.73
2023-10-17T16:43:21.687Z,3.03
2023-10-17T16:45:49.157Z,3.00
2023-10-17T16:48:15.571Z,3.30
2023-10-17T16:50:51.861Z,3.60
2023-10-17T16:53:18.029Z,3.43
2023-10-17T16:55:44.309Z,3.80
2023-10-17T16:58:10.477Z,3.40
2023-10-17T17:00:37.444Z,3.07
2023-10-17T17:03:03.730Z,4.43
2023-10-17T17:05:30.819Z,3.60
2023-10-17T17:07:56.964Z,3.73
2023-10-17T17:10:23.049Z,4.30
2023-10-17T17:12:49.468Z,3.93
2023-10-17T17:15:16.266Z,4.50
2023-10-17T17:17:43.014Z,5.67
2023-10-17T17:20:14.478Z,6.17
2023-10-17T17:22:42.231Z,9.50
2023-10-17T17:25:15.112Z,8.90
2023-10-17T17:27:41.972Z,10.50
2023-10-17T17:30:09.284Z,11.90
2023-10-17T17:32:38.816Z,13.00
2023-10-17T17:35:07.614Z,11.87
2023-10-17T17:37:34.905Z,13.30
2023-10-17T17:40:01.390Z,12.03
2023-10-17T17:42:28.056Z,9.83
2023-10-17T17:44:56.747Z,9.87
2023-10-17T17:47:24.340Z,8.70
2023-10-17T17:49:50.472Z,9.40
2023-10-17T17:52:16.735Z,8.00
2023-10-17T17:54:44.228Z,9.17
2023-10-17T17:57:11.000Z,10.20
2023-10-17T17:59:37.350Z,10.47
2023-10-17T18:02:03.375Z,11.77
2023-10-17T18:04:36.037Z,11.10
2023-10-17T18:07:05.016Z,11.90
2023-10-17T18:09:32.393Z,11.60
2023-10-17T18:12:00.852Z,12.83
2023-10-17T18:14:27.208Z,12.50
2023-10-17T18:16:53.524Z,12.63
2023-10-17T18:19:22.468Z,14.03
2023-10-17T18:21:50.827Z,13.80
2023-10-17T18:24:17.144Z,13.77
2023-10-17T18:26:43.746Z,13.67
2023-10-17T18:29:12.932Z,14.47
2023-10-17T18:31:42.321Z,13.77
2023-10-17T18:34:11.325Z,13.10
2023-10-17T18:36:38.051Z,14.17
2023-10-17T18:39:04.592Z,19.10
2023-10-17T18:41:31.140Z,18.83
2023-10-17T18:43:57.280Z,17.47
2023-10-17T18:46:24.354Z,16.53
2023-10-17T18:48:51.674Z,17.53
2023-10-17T18:51:20.181Z,16.77
2023-10-17T18:53:46.529Z,16.00
2023-10-17T18:56:14.669Z,16.50
2023-10-17T18:58:41.888Z,16.30
2023-10-17T19:01:15.009Z,16.77
2023-10-17T19:03:42.618Z,16.90
2023-10-17T19:06:09.560Z,17.67
2023-10-17T19:08:36.134Z,18.30
2023-10-17T19:11:02.712Z,20.80
2023-10-17T19:13:29.611Z,23.27
2023-10-17T19:15:56.088Z,22.00
2023-10-17T19:18:22.913Z,22.13
2023-10-17T19:20:48.868Z,21.77
2023-10-17T19:23:16.410Z,22.87
2023-10-17T19:25:44.399Z,21.93
2023-10-17T19:28:11.848Z,21.47
2023-10-17T19:30:38.256Z,21.03
2023-10-17T19:33:04.792Z,21.13
2023-10-17T19:35:31.887Z,20.33
2023-10-17T19:37:58.411Z,20.03
2023-10-17T19:40:27.130Z,21.80
2023-10-17T19:42:53.437Z,24.50
2023-10-17T19:45:21.263Z,25.53
2023-10-17T19:47:51.074Z,28.27
2023-10-17T19:50:18.804Z,28.53
2023-10-17T19:52:46.793Z,27.73
2023-10-17T19:55:16.845Z,27.20
2023-10-17T19:57:43.740Z,25.70
2023-10-17T20:00:16.833Z,25.67
2023-10-17T20:02:44.841Z,27.00
2023-10-17T20:05:11.545Z,27.80
2023-10-17T20:07:38.862Z,27.00
2023-10-17T20:10:06.203Z,26.67
2023-10-17T20:12:33.300Z,26.40
2023-10-17T20:14:59.826Z,25.70
2023-10-17T20:17:26.164Z,27.60
2023-10-17T20:19:52.995Z,27.50
2023-10-17T20:22:20.088Z,26.20
2023-10-17T20:24:46.763Z,26.20
2023-10-17T20:27:12.973Z,24.03
2023-10-17T20:29:39.226Z,26.30
2023-10-17T20:32:07.535Z,26.20
2023-10-17T20:34:34.190Z,27.30
2023-10-17T20:37:00.734Z,26.50
2023-10-17T20:39:30.807Z,26.07
2023-10-17T20:41:59.525Z,26.50
2023-10-17T20:44:27.246Z,25.87
2023-10-17T20:46:53.932Z,25.13
2023-10-17T20:49:20.105Z,25.27
2023-10-17T20:51:46.240Z,25.83
2023-10-17T20:54:12.566Z,26.63
2023-10-17T20:56:42.185Z,24.27
2023-10-17T20:59:09.605Z,24.53
2023-10-17T21:01:36.063Z,24.20
2023-10-17T21:04:02.283Z,25.47
2023-10-17T21:06:28.509Z,23.87
2023-10-17T21:08:55.932Z,24.07
2023-10-17T21:11:22.301Z,23.10
2023-10-17T21:13:48.625Z,22.27
2023-10-17T21:16:18.138Z,24.97
2023-10-17T21:18:49.422Z,20.90
2023-10-17T21:21:16.818Z,22.73
2023-10-17T21:23:44.692Z,21.80
2023-10-17T21:26:13.690Z,21.97
2023-10-17T21:28:42.781Z,22.30
2023-10-17T21:31:09.044Z,20.77
2023-10-17T21:33:36.749Z,22.73
2023-10-17T21:36:04.017Z,21.23
2023-10-17T21:38:30.096Z,19.43
2023-10-17T21:41:03.356Z,19.73
2023-10-17T21:43:30.512Z,20.00
2023-10-17T21:45:58.270Z,20.40
2023-10-17T21:48:24.410Z,20.90
2023-10-17T21:51:03.556Z,18.30
2023-10-17T21:53:36.845Z,18.60
2023-10-17T21:56:04.785Z,18.90
2023-10-17T21:58:32.151Z,21.90
2023-10-17T22:01:03.685Z,19.90
2023-10-17T22:03:30.918Z,19.07
2023-10-17T22:05:57.777Z,19.43
2023-10-17T22:08:23.827Z,18.57
2023-10-17T22:10:49.955Z,20.13
2023-10-17T22:13:18.022Z,19.30
2023-10-17T22:15:44.368Z,19.60
2023-10-17T22:18:10.623Z,19.50
2023-10-17T22:20:37.438Z,19.87
2023-10-17T22:23:03.637Z,19.50
2023-10-17T22:25:29.771Z,19.00
2023-10-17T22:27:56.652Z,19.60
2023-10-17T22:30:22.892Z,18.13
2023-10-17T22:32:48.937Z,19.20
2023-10-17T22:35:14.970Z,17.43
2023-10-17T22:37:41.758Z,18.20
2023-10-17T22:40:12.591Z,19.33
2023-10-17T22:42:39.680Z,18.10
2023-10-17T22:45:12.974Z,18.47
2023-10-17T22:47:39.495Z,18.97
2023-10-17T22:50:06.457Z,17.03
2023-10-17T22:52:32.524Z,19.40
2023-10-17T22:54:58.774Z,17.73
2023-10-17T22:57:24.907Z,19.43
2023-10-17T22:59:51.011Z,18.30
2023-10-17T23:02:17.226Z,18.90
2023-10-17T23:04:43.287Z,18.17
2023-10-17T23:07:10.305Z,18.80
2023-10-17T23:09:36.812Z,20.13
2023-10-17T23:12:04.710Z,17.30
2023-10-17T23:14:30.702Z,18.50
2023-10-17T23:16:56.753Z,18.73
2023-10-17T23:19:22.845Z,16.67
2023-10-17T23:21:49.120Z,19.03
2023-10-17T23:24:18.184Z,17.27
2023-10-17T23:26:44.326Z,18.47
2023-10-17T23:29:10.432Z,18.90
2023-10-17T23:31:38.525Z,19.73
2023-10-17T23:34:05.260Z,19.47
2023-10-17T23:36:31.368Z,18.77
2023-10-17T23:38:57.612Z,18.00
2023-10-17T23:41:24.069Z,18.30
2023-10-17T23:43:50.108Z,19.63
2023-10-17T23:46:16.443Z,18.70
2023-10-17T23:48:42.668Z,17.30
2023-10-17T23:51:09.838Z,17.53
2023-10-17T23:53:36.853Z,18.80
2023-10-17T23:56:09.180Z,18.13
2023-10-17T23:58:36.311Z,17.83
